createdAt,value
2023-04-14T00:00:00.565Z,99310
2023-04-14T00:01:00.412Z,99310
2023-04-14T00:02:00.582Z,99310
2023-04-14T00:03:00.615Z,99310
2023-04-14T00:04:00.778Z,99310
2023-04-14T00:05:00.484Z,99310
2023-04-14T00:06:00.422Z,99310
2023-04-14T00:07:00.431Z,99310
2023-04-14T00:08:00.766Z,99310
2023-04-14T00:09:00.598Z,99310
2023-04-14T00:10:00.466Z,99310
2023-04-14T00:11:00.754Z,99310
2023-04-14T00:12:00.495Z,99310
2023-04-14T00:13:00.450Z,99310
2023-04-14T00:14:00.441Z,99310
2023-04-14T00:15:00.443Z,99300
2023-04-14T00:16:00.682Z,99300
2023-04-14T00:17:00.671Z,99300
2023-04-14T00:18:00.487Z,99290
2023-04-14T00:19:00.657Z,99290
2023-04-14T00:20:00.446Z,99290
2023-04-14T00:21:00.410Z,99290
2023-04-14T00:22:00.402Z,99290
2023-04-14T00:23:00.405Z,99290
2023-04-14T00:24:00.409Z,99290
2023-04-14T00:25:00.921Z,99290
2023-04-14T00:26:00.513Z,99290
2023-04-14T00:27:00.410Z,99290
2023-04-14T00:28:00.482Z,99290
2023-04-14T00:29:00.824Z,99290
2023-04-14T00:30:00.440Z,99290
2023-04-14T00:31:00.501Z,99280
2023-04-14T00:32:00.451Z,99290
2023-04-14T00:33:00.495Z,99280
2023-04-14T00:34:00.411Z,99280
2023-04-14T00:35:00.444Z,99280
2023-04-14T00:36:00.581Z,99280
2023-04-14T00:37:00.495Z,99280
2023-04-14T00:38:00.634Z,99280
2023-04-14T00:39:00.600Z,99280
2023-04-14T00:40:00.406Z,99280
2023-04-14T00:41:00.415Z,99280
2023-04-14T00:42:00.717Z,99280
2023-04-14T00:43:00.434Z,99280
2023-04-14T00:44:00.403Z,99280
2023-04-14T00:45:00.405Z,99280
2023-04-14T00:46:00.757Z,99280
2023-04-14T00:47:00.699Z,99280
2023-04-14T00:48:00.534Z,99280
2023-04-14T00:49:01.067Z,99290
2023-04-14T00:50:00.492Z,99290
2023-04-14T00:51:00.465Z,99280
2023-04-14T00:52:00.445Z,99290
2023-04-14T00:53:01.154Z,99290
2023-04-14T00:54:04.394Z,99280
2023-04-14T00:55:02.360Z,99280
2023-04-14T00:56:00.469Z,99280
2023-04-14T00:57:01.587Z,99280
2023-04-14T00:58:01.028Z,99280
2023-04-14T00:59:01.582Z,99280
2023-04-14T01:00:01.626Z,99280
2023-04-14T01:01:00.564Z,99280
2023-04-14T01:02:00.916Z,99280
2023-04-14T01:03:00.715Z,99270
2023-04-14T01:04:01.432Z,99280
2023-04-14T01:05:00.567Z,99270
2023-04-14T01:06:00.524Z,99280
2023-04-14T01:07:00.435Z,99280
2023-04-14T01:08:02.178Z,99280
2023-04-14T01:09:00.704Z,99270
2023-04-14T01:10:01.109Z,99270
2023-04-14T01:11:13.081Z,99270
2023-04-14T01:12:17.485Z,99270
2023-04-14T01:13:14.667Z,99270
2023-04-14T01:14:09.380Z,99270
2023-04-14T01:15:07.917Z,99280
2023-04-14T01:16:05.280Z,99280
2023-04-14T01:17:08.066Z,99280
2023-04-14T01:18:18.619Z,99280
2023-04-14T01:19:13.617Z,99280
2023-04-14T01:20:13.641Z,99280
2023-04-14T01:21:12.951Z,99290
2023-04-14T01:22:05.212Z,99280
2023-04-14T01:23:06.135Z,99280
2023-04-14T01:24:04.707Z,99280
2023-04-14T01:25:07.999Z,99280
2023-04-14T01:26:15.275Z,99280
2023-04-14T01:27:14.653Z,99280
2023-04-14T01:28:19.631Z,99280
2023-04-14T01:29:01.690Z,99280
2023-04-14T01:30:20.332Z,99280
2023-04-14T01:31:09.177Z,99280
2023-04-14T01:32:03.900Z,99280
2023-04-14T01:33:05.856Z,99280
2023-04-14T01:34:13.601Z,99290
2023-04-14T01:35:09.484Z,99290
2023-04-14T01:36:06.545Z,99290
2023-04-14T01:37:14.507Z,99300
2023-04-14T01:38:05.556Z,99300
2023-04-14T01:39:07.116Z,99300
2023-04-14T01:40:09.652Z,99290
2023-04-14T01:41:04.951Z,99290
2023-04-14T01:42:04.879Z,99280
2023-04-14T01:43:07.054Z,99280
2023-04-14T01:44:03.128Z,99280
2023-04-14T01:45:07.033Z,99280
2023-04-14T01:46:05.984Z,99280
2023-04-14T01:47:04.958Z,99280
2023-04-14T01:48:01.269Z,99280
2023-04-14T01:49:01.287Z,99280
2023-04-14T01:50:03.149Z,99280
2023-04-14T01:51:01.839Z,99280
2023-04-14T01:52:04.718Z,99280
2023-04-14T01:53:04.858Z,99280
2023-04-14T01:54:02.020Z,99280
2023-04-14T01:55:02.170Z,99280
2023-04-14T01:56:02.602Z,99270
2023-04-14T01:57:02.663Z,99270
2023-04-14T01:58:01.344Z,99270
2023-04-14T01:59:01.881Z,99270
2023-04-14T02:00:01.724Z,99280
2023-04-14T02:01:00.561Z,99270
2023-04-14T02:02:02.516Z,99260
2023-04-14T02:03:02.835Z,99270
2023-04-14T02:04:02.393Z,99260
2023-04-14T02:05:00.984Z,99270
2023-04-14T02:06:02.820Z,99270
2023-04-14T02:07:01.897Z,99270
2023-04-14T02:08:03.257Z,99270
2023-04-14T02:09:02.459Z,99270
2023-04-14T02:10:04.148Z,99260
2023-04-14T02:11:01.649Z,99260
2023-04-14T02:12:02.730Z,99260
2023-04-14T02:13:02.564Z,99260
2023-04-14T02:14:01.662Z,99260
2023-04-14T02:15:01.242Z,99260
2023-04-14T02:16:01.822Z,99260
2023-04-14T02:17:00.449Z,99260
2023-04-14T02:18:03.179Z,99260
2023-04-14T02:19:02.804Z,99260
2023-04-14T02:20:00.702Z,99260
2023-04-14T02:21:02.770Z,99260
2023-04-14T02:22:02.035Z,99260
2023-04-14T02:23:00.490Z,99260
2023-04-14T02:24:00.847Z,99250
2023-04-14T02:25:00.838Z,99250
2023-04-14T02:26:06.436Z,99250
2023-04-14T02:27:07.700Z,99250
2023-04-14T02:28:05.386Z,99250
2023-04-14T02:29:10.242Z,99240
2023-04-14T02:30:08.564Z,99240
2023-04-14T02:31:06.376Z,99240
2023-04-14T02:32:04.317Z,99240
2023-04-14T02:33:07.308Z,99250
2023-04-14T02:34:04.824Z,99250
2023-04-14T02:35:14.621Z,99260
2023-04-14T02:36:05.045Z,99260
2023-04-14T02:37:07.623Z,99260
2023-04-14T02:38:09.110Z,99250
2023-04-14T02:39:09.123Z,99250
2023-04-14T02:40:06.554Z,99250
2023-04-14T02:41:07.751Z,99250
2023-04-14T02:42:10.498Z,99250
2023-04-14T02:43:06.387Z,99250
2023-04-14T02:44:13.621Z,99250
2023-04-14T02:45:05.401Z,99250
2023-04-14T02:46:03.290Z,99250
2023-04-14T02:47:04.211Z,99250
2023-04-14T02:48:04.499Z,99250
2023-04-14T02:49:02.674Z,99240
2023-04-14T02:50:02.897Z,99250
2023-04-14T02:51:02.434Z,99240
2023-04-14T02:52:02.145Z,99240
2023-04-14T02:53:02.014Z,99240
2023-04-14T02:54:01.897Z,99240
2023-04-14T02:55:02.743Z,99240
2023-04-14T02:56:00.814Z,99240
2023-04-14T02:57:01.153Z,99240
2023-04-14T02:58:00.696Z,99240
2023-04-14T02:59:01.515Z,99240
2023-04-14T03:00:01.186Z,99240
2023-04-14T03:01:01.117Z,99240
2023-04-14T03:02:00.837Z,99240
2023-04-14T03:03:01.775Z,99240
2023-04-14T03:04:00.953Z,99240
2023-04-14T03:05:01.999Z,99240
2023-04-14T03:06:00.983Z,99240
2023-04-14T03:07:01.794Z,99240
2023-04-14T03:08:02.755Z,99240
2023-04-14T03:09:01.701Z,99240
2023-04-14T03:10:01.441Z,99240
2023-04-14T03:11:01.648Z,99240
2023-04-14T03:12:02.458Z,99250
2023-04-14T03:13:02.293Z,99240
2023-04-14T03:14:01.906Z,99250
2023-04-14T03:15:01.419Z,99240
2023-04-14T03:16:02.149Z,99240
2023-04-14T03:17:01.705Z,99250
2023-04-14T03:18:00.762Z,99250
2023-04-14T03:19:02.910Z,99250
2023-04-14T03:20:01.037Z,99250
2023-04-14T03:21:00.621Z,99250
2023-04-14T03:22:01.807Z,99240
2023-04-14T03:23:00.904Z,99250
2023-04-14T03:24:00.903Z,99240
2023-04-14T03:25:00.551Z,99240
2023-04-14T03:26:01.488Z,99240
2023-04-14T03:27:04.425Z,99240
2023-04-14T03:28:03.690Z,99230
2023-04-14T03:29:02.910Z,99230
2023-04-14T03:30:04.248Z,99230
2023-04-14T03:31:03.171Z,99220
2023-04-14T03:32:04.357Z,99230
2023-04-14T03:33:07.501Z,99220
2023-04-14T03:34:03.328Z,99230
2023-04-14T03:35:01.820Z,99230
2023-04-14T03:36:00.976Z,99230
2023-04-14T03:37:03.107Z,99220
2023-04-14T03:38:03.403Z,99220
2023-04-14T03:39:01.325Z,99220
2023-04-14T03:40:01.931Z,99220
2023-04-14T03:41:02.218Z,99220
2023-04-14T03:42:01.601Z,99220
2023-04-14T03:43:01.126Z,99220
2023-04-14T03:44:02.934Z,99220
2023-04-14T03:45:02.443Z,99220
2023-04-14T03:46:01.712Z,99220
2023-04-14T03:47:01.328Z,99220
2023-04-14T03:48:02.927Z,99210
2023-04-14T03:49:01.650Z,99220
2023-04-14T03:50:03.319Z,99220
2023-04-14T03:51:02.876Z,99230
2023-04-14T03:52:03.296Z,99230
2023-04-14T03:53:00.401Z,99220
2023-04-14T03:54:03.801Z,99220
2023-04-14T03:55:03.227Z,99220
2023-04-14T03:56:02.498Z,99220
2023-04-14T03:57:03.340Z,99220
2023-04-14T03:58:01.997Z,99230
2023-04-14T03:59:02.809Z,99220
2023-04-14T04:00:02.580Z,99220
2023-04-14T04:01:01.908Z,99220
2023-04-14T04:02:01.254Z,99220
2023-04-14T04:03:01.562Z,99230
2023-04-14T04:04:01.160Z,99220
2023-04-14T04:05:01.270Z,99220
2023-04-14T04:06:02.572Z,99220
2023-04-14T04:07:00.701Z,99220
2023-04-14T04:08:01.901Z,99230
2023-04-14T04:09:01.701Z,99230
2023-04-14T04:10:03.796Z,99230
2023-04-14T04:11:01.566Z,99230
2023-04-14T04:12:02.362Z,99230
2023-04-14T04:13:01.958Z,99230
2023-04-14T04:14:03.059Z,99230
2023-04-14T04:15:00.626Z,99230
2023-04-14T04:16:01.067Z,99230
2023-04-14T04:17:04.672Z,99230
2023-04-14T04:18:02.409Z,99230
2023-04-14T04:19:04.559Z,99230
2023-04-14T04:20:07.156Z,99220
2023-04-14T04:21:01.583Z,99220
2023-04-14T04:22:02.392Z,99210
2023-04-14T04:23:02.906Z,99210
2023-04-14T04:24:02.066Z,99210
2023-04-14T04:25:01.324Z,99200
2023-04-14T04:26:00.825Z,99200
2023-04-14T04:27:00.453Z,99200
2023-04-14T04:28:00.780Z,99210
2023-04-14T04:29:02.482Z,99210
2023-04-14T04:30:00.540Z,99200
2023-04-14T04:31:02.579Z,99200
2023-04-14T04:32:00.600Z,99200
2023-04-14T04:33:02.020Z,99200
2023-04-14T04:34:01.075Z,99200
2023-04-14T04:35:01.961Z,99200
2023-04-14T04:36:01.798Z,99200
2023-04-14T04:37:00.549Z,99200
2023-04-14T04:38:00.457Z,99200
2023-04-14T04:39:00.837Z,99200
2023-04-14T04:40:00.501Z,99200
2023-04-14T04:41:00.505Z,99210
2023-04-14T04:42:01.939Z,99210
2023-04-14T04:43:00.403Z,99210
2023-04-14T04:44:00.593Z,99200
2023-04-14T04:45:00.437Z,99200
2023-04-14T04:46:13.344Z,99200
2023-04-14T04:47:00.867Z,99200
2023-04-14T04:48:00.425Z,99200
2023-04-14T04:49:00.731Z,99210
2023-04-14T04:50:00.431Z,99210
2023-04-14T04:51:00.422Z,99210
2023-04-14T04:52:00.438Z,99210
2023-04-14T04:53:00.401Z,99210
2023-04-14T04:54:00.543Z,99200
2023-04-14T04:55:00.485Z,99210
2023-04-14T04:56:00.420Z,99210
2023-04-14T04:57:00.498Z,99210
2023-04-14T04:58:00.405Z,99200
2023-04-14T04:59:01.065Z,99200
2023-04-14T05:00:00.401Z,99200
2023-04-14T05:01:09.292Z,99200
2023-04-14T05:02:00.520Z,99200
2023-04-14T05:03:00.513Z,99200
2023-04-14T05:04:00.555Z,99200
2023-04-14T05:05:00.417Z,99200
2023-04-14T05:06:00.409Z,99190
2023-04-14T05:07:01.932Z,99190
2023-04-14T05:08:00.407Z,99200
2023-04-14T05:09:00.669Z,99190
2023-04-14T05:10:00.409Z,99190
2023-04-14T05:11:00.394Z,99200
2023-04-14T05:12:00.401Z,99200
2023-04-14T05:13:00.413Z,99190
2023-04-14T05:14:01.285Z,99200
2023-04-14T05:15:00.397Z,99190
2023-04-14T05:16:04.406Z,99200
2023-04-14T05:17:00.459Z,99200
2023-04-14T05:18:00.483Z,99190
2023-04-14T05:19:00.737Z,99190
2023-04-14T05:20:00.412Z,99190
2023-04-14T05:21:01.166Z,99190
2023-04-14T05:22:00.560Z,99190
2023-04-14T05:23:00.394Z,99190
2023-04-14T05:24:00.592Z,99190
2023-04-14T05:25:00.504Z,99190
2023-04-14T05:26:16.278Z,99190
2023-04-14T05:27:13.874Z,99190
2023-04-14T05:28:00.418Z,99190
2023-04-14T05:29:00.917Z,99190
2023-04-14T05:30:00.420Z,99190
2023-04-14T05:31:01.441Z,99200
2023-04-14T05:32:00.402Z,99200
2023-04-14T05:33:00.496Z,99200
2023-04-14T05:34:00.716Z,99190
2023-04-14T05:35:00.393Z,99200
2023-04-14T05:36:00.646Z,99200
2023-04-14T05:37:00.412Z,99200
2023-04-14T05:38:00.409Z,99200
2023-04-14T05:39:00.449Z,99200
2023-04-14T05:40:00.407Z,99200
2023-04-14T05:41:00.414Z,99200
2023-04-14T05:42:00.444Z,99200
2023-04-14T05:43:00.501Z,99200
2023-04-14T05:44:00.909Z,99200
2023-04-14T05:45:00.419Z,99200
2023-04-14T05:46:00.415Z,99190
2023-04-14T05:47:00.555Z,99200
2023-04-14T05:48:00.561Z,99200
2023-04-14T05:49:00.748Z,99190
2023-04-14T05:50:00.451Z,99190
2023-04-14T05:51:00.455Z,99190
2023-04-14T05:52:00.420Z,99190
2023-04-14T05:53:00.546Z,99190
2023-04-14T05:54:00.709Z,99190
2023-04-14T05:55:00.419Z,99180
2023-04-14T05:56:00.405Z,99180
2023-04-14T05:57:00.416Z,99190
2023-04-14T05:58:00.592Z,99180
2023-04-14T05:59:00.423Z,99180
2023-04-14T06:00:00.460Z,99180
2023-04-14T06:01:00.459Z,99180
2023-04-14T06:02:00.481Z,99180
2023-04-14T06:03:00.570Z,99180
2023-04-14T06:04:01.138Z,99180
2023-04-14T06:05:00.691Z,99180
2023-04-14T06:06:00.405Z,99180
2023-04-14T06:07:00.537Z,99180
2023-04-14T06:08:00.446Z,99180
2023-04-14T06:09:00.519Z,99180
2023-04-14T06:10:00.766Z,99180
2023-04-14T06:11:00.410Z,99180
2023-04-14T06:12:00.411Z,99180
2023-04-14T06:13:00.397Z,99180
2023-04-14T06:14:00.518Z,99180
2023-04-14T06:15:00.513Z,99170
2023-04-14T06:16:00.497Z,99170
2023-04-14T06:17:00.478Z,99170
2023-04-14T06:18:00.786Z,99170
2023-04-14T06:19:00.507Z,99160
2023-04-14T06:20:00.464Z,99160
2023-04-14T06:21:00.783Z,99160
2023-04-14T06:22:00.413Z,99160
2023-04-14T06:23:00.460Z,99160
2023-04-14T06:24:00.461Z,99150
2023-04-14T06:25:00.406Z,99160
2023-04-14T06:26:00.454Z,99150
2023-04-14T06:27:00.502Z,99150
2023-04-14T06:28:00.415Z,99140
2023-04-14T06:29:00.794Z,99140
2023-04-14T06:30:00.427Z,99140
2023-04-14T06:31:00.490Z,99140
2023-04-14T06:32:00.510Z,99140
2023-04-14T06:33:00.494Z,99140
2023-04-14T06:34:00.464Z,99130
2023-04-14T06:35:00.402Z,99130
2023-04-14T06:36:00.934Z,99130
2023-04-14T06:37:00.440Z,99130
2023-04-14T06:38:01.002Z,99130
2023-04-14T06:39:00.668Z,99130
2023-04-14T06:40:00.418Z,99130
2023-04-14T06:41:00.431Z,99130
2023-04-14T06:42:00.403Z,99130
2023-04-14T06:43:00.425Z,99120
2023-04-14T06:44:00.457Z,99120
2023-04-14T06:45:00.475Z,99120
2023-04-14T06:46:00.515Z,99120
2023-04-14T06:47:00.447Z,99120
2023-04-14T06:48:00.442Z,99120
2023-04-14T06:49:01.218Z,99120
2023-04-14T06:50:00.396Z,99120
2023-04-14T06:51:00.448Z,99120
2023-04-14T06:52:00.413Z,99120
2023-04-14T06:53:00.395Z,99120
2023-04-14T06:54:00.774Z,99120
2023-04-14T06:55:00.452Z,99110
2023-04-14T06:56:00.469Z,99110
2023-04-14T06:57:01.226Z,99110
2023-04-14T06:58:00.407Z,99120
2023-04-14T06:59:00.400Z,99110
2023-04-14T07:00:00.537Z,99110
2023-04-14T07:01:02.283Z,99110
2023-04-14T07:02:00.541Z,99110
2023-04-14T07:03:00.615Z,99110
2023-04-14T07:04:04.403Z,99110
2023-04-14T07:05:00.727Z,99110
2023-04-14T07:06:02.793Z,99110
2023-04-14T07:07:00.682Z,99110
2023-04-14T07:08:00.404Z,99120
2023-04-14T07:09:00.394Z,99120
2023-04-14T07:10:00.546Z,99120
2023-04-14T07:11:02.233Z,99120
2023-04-14T07:12:00.431Z,99120
2023-04-14T07:13:00.389Z,99120
2023-04-14T07:14:00.728Z,99120
2023-04-14T07:15:00.417Z,99120
2023-04-14T07:16:01.934Z,99120
2023-04-14T07:17:00.429Z,99120
2023-04-14T07:18:00.517Z,99120
2023-04-14T07:19:00.391Z,99120
2023-04-14T07:20:00.387Z,99120
2023-04-14T07:21:01.182Z,99120
2023-04-14T07:22:00.437Z,99120
2023-04-14T07:23:00.423Z,99120
2023-04-14T07:24:00.760Z,99110
2023-04-14T07:25:00.396Z,99120
2023-04-14T07:26:00.489Z,99120
2023-04-14T07:27:00.424Z,99120
2023-04-14T07:28:03.962Z,99120
2023-04-14T07:29:00.544Z,99120
2023-04-14T07:30:00.408Z,99120
2023-04-14T07:31:06.479Z,99120
2023-04-14T07:32:00.510Z,99120
2023-04-14T07:33:00.406Z,99120
2023-04-14T07:34:00.693Z,99120
2023-04-14T07:35:00.496Z,99120
2023-04-14T07:36:03.991Z,99120
2023-04-14T07:37:00.439Z,99120
2023-04-14T07:38:00.439Z,99130
2023-04-14T07:39:00.395Z,99120
2023-04-14T07:40:00.573Z,99130
2023-04-14T07:41:04.122Z,99120
2023-04-14T07:42:00.415Z,99130
2023-04-14T07:43:00.440Z,99130
2023-04-14T07:44:00.718Z,99130
2023-04-14T07:45:01.051Z,99120
2023-04-14T07:46:01.469Z,99120
2023-04-14T07:47:00.382Z,99120
2023-04-14T07:48:00.824Z,99120
2023-04-14T07:49:00.467Z,99120
2023-04-14T07:50:00.522Z,99120
2023-04-14T07:51:00.747Z,99120
2023-04-14T07:52:00.406Z,99120
2023-04-14T07:53:00.435Z,99120
2023-04-14T07:54:00.722Z,99110
2023-04-14T07:55:00.400Z,99110
2023-04-14T07:56:00.467Z,99120
2023-04-14T07:57:00.433Z,99110
2023-04-14T07:58:00.424Z,99110
2023-04-14T07:59:00.732Z,99110
2023-04-14T08:00:00.853Z,99110
2023-04-14T08:01:00.426Z,99110
2023-04-14T08:02:00.545Z,99110
2023-04-14T08:03:00.707Z,99110
2023-04-14T08:04:00.631Z,99110
2023-04-14T08:05:00.435Z,99110
2023-04-14T08:06:00.472Z,99110
2023-04-14T08:07:00.408Z,99110
2023-04-14T08:08:00.506Z,99110
2023-04-14T08:09:00.717Z,99110
2023-04-14T08:10:00.396Z,99120
2023-04-14T08:11:00.461Z,99110
2023-04-14T08:12:00.402Z,99120
2023-04-14T08:13:03.070Z,99120
2023-04-14T08:14:00.439Z,99120
2023-04-14T08:15:00.431Z,99120
2023-04-14T08:16:00.498Z,99120
2023-04-14T08:17:00.403Z,99120
2023-04-14T08:18:00.733Z,99120
2023-04-14T08:19:00.714Z,99120
2023-04-14T08:20:00.445Z,99120
2023-04-14T08:21:00.405Z,99120
2023-04-14T08:22:00.398Z,99130
2023-04-14T08:23:00.395Z,99130
2023-04-14T08:24:00.588Z,99130
2023-04-14T08:25:00.484Z,99130
2023-04-14T08:26:00.448Z,99130
2023-04-14T08:27:00.397Z,99130
2023-04-14T08:28:00.400Z,99130
2023-04-14T08:29:00.707Z,99130
2023-04-14T08:30:00.408Z,99130
2023-04-14T08:31:00.419Z,99130
2023-04-14T08:32:00.456Z,99120
2023-04-14T08:33:00.411Z,99130
2023-04-14T08:34:00.441Z,99130
2023-04-14T08:35:35.357Z,99120
2023-04-14T08:36:00.888Z,99120
2023-04-14T08:37:00.420Z,99120
2023-04-14T08:38:00.417Z,99120
2023-04-14T08:39:00.623Z,99120
2023-04-14T08:40:00.447Z,99120
2023-04-14T08:41:03.260Z,99120
2023-04-14T08:42:00.464Z,99120
2023-04-14T08:43:00.440Z,99120
2023-04-14T08:44:00.464Z,99120
2023-04-14T08:45:00.413Z,99120
2023-04-14T08:46:00.818Z,99110
2023-04-14T08:47:01.225Z,99110
2023-04-14T08:48:02.582Z,99110
2023-04-14T08:49:05.328Z,99110
2023-04-14T08:50:05.413Z,99110
2023-04-14T08:51:09.017Z,99110
2023-04-14T08:52:01.550Z,99110
2023-04-14T08:53:01.288Z,99110
2023-04-14T08:54:04.460Z,99100
2023-04-14T08:55:01.311Z,99100
2023-04-14T08:56:02.612Z,99100
2023-04-14T08:57:02.415Z,99100
2023-04-14T08:58:02.342Z,99110
2023-04-14T08:59:00.454Z,99110
2023-04-14T09:00:00.596Z,99110
2023-04-14T09:01:01.058Z,99110
2023-04-14T09:02:02.597Z,99110
2023-04-14T09:03:01.125Z,99110
2023-04-14T09:04:01.956Z,99110
2023-04-14T09:05:00.903Z,99120
2023-04-14T09:06:00.608Z,99120
2023-04-14T09:07:01.121Z,99120
2023-04-14T09:08:01.169Z,99120
2023-04-14T09:09:01.058Z,99120
2023-04-14T09:10:00.448Z,99120
2023-04-14T09:11:01.279Z,99110
2023-04-14T09:12:00.674Z,99120
2023-04-14T09:13:02.979Z,99120
2023-04-14T09:14:01.292Z,99110
2023-04-14T09:15:00.535Z,99110
2023-04-14T09:16:00.615Z,99120
2023-04-14T09:17:00.600Z,99120
2023-04-14T09:18:00.983Z,99110
2023-04-14T09:19:06.657Z,99110
2023-04-14T09:20:36.047Z,99110
2023-04-14T09:21:37.195Z,99110
2023-04-14T09:22:00.534Z,99110
2023-04-14T09:23:00.478Z,99110
2023-04-14T09:24:01.344Z,99110
2023-04-14T09:25:01.445Z,99110
2023-04-14T09:26:00.461Z,99110
2023-04-14T09:27:02.754Z,99100
2023-04-14T09:28:00.455Z,99110
2023-04-14T09:29:00.771Z,99100
2023-04-14T09:30:01.389Z,99100
2023-04-14T09:31:00.450Z,99100
2023-04-14T09:32:00.531Z,99090
2023-04-14T09:33:05.315Z,99100
2023-04-14T09:34:00.741Z,99100
2023-04-14T09:35:00.455Z,99100
2023-04-14T09:36:00.446Z,99090
2023-04-14T09:37:03.542Z,99100
2023-04-14T09:38:00.413Z,99100
2023-04-14T09:39:11.022Z,99100
2023-04-14T09:40:00.425Z,99100
2023-04-14T09:41:00.781Z,99090
2023-04-14T09:42:02.138Z,99090
2023-04-14T09:43:00.424Z,99090
2023-04-14T09:44:07.534Z,99090
2023-04-14T09:45:00.433Z,99090
2023-04-14T09:46:05.958Z,99090
2023-04-14T09:47:03.892Z,99090
2023-04-14T09:48:08.616Z,99090
2023-04-14T09:49:00.421Z,99090
2023-04-14T09:50:02.954Z,99090
2023-04-14T09:51:05.875Z,99090
2023-04-14T09:52:04.367Z,99090
2023-04-14T09:53:02.856Z,99090
2023-04-14T09:54:02.109Z,99090
2023-04-14T09:55:00.412Z,99090
2023-04-14T09:56:04.466Z,99090
2023-04-14T09:57:01.114Z,99080
2023-04-14T09:58:00.445Z,99080
2023-04-14T09:59:01.205Z,99080
2023-04-14T10:00:00.425Z,99090
2023-04-14T10:01:02.818Z,99080
2023-04-14T10:02:05.540Z,99080
2023-04-14T10:03:00.547Z,99080
2023-04-14T10:04:01.485Z,99080
2023-04-14T10:05:03.143Z,99080
2023-04-14T10:06:01.020Z,99080
2023-04-14T10:07:00.402Z,99080
2023-04-14T10:08:01.853Z,99080
2023-04-14T10:09:00.793Z,99090
2023-04-14T10:10:10.841Z,99080
2023-04-14T10:11:13.668Z,99080
2023-04-14T10:12:11.402Z,99080
2023-04-14T10:13:00.412Z,99080
2023-04-14T10:14:02.649Z,99080
2023-04-14T10:15:00.444Z,99080
2023-04-14T10:16:00.449Z,99080
2023-04-14T10:17:00.610Z,99080
2023-04-14T10:18:00.646Z,99080
2023-04-14T10:19:01.076Z,99070
2023-04-14T10:20:00.473Z,99080
2023-04-14T10:21:04.024Z,99080
2023-04-14T10:22:01.137Z,99070
2023-04-14T10:23:01.816Z,99070
2023-04-14T10:24:00.465Z,99070
2023-04-14T10:25:01.109Z,99070
2023-04-14T10:26:01.078Z,99060
2023-04-14T10:27:02.150Z,99070
2023-04-14T10:28:00.507Z,99060
2023-04-14T10:29:00.910Z,99060
2023-04-14T10:30:00.487Z,99060
2023-04-14T10:31:01.882Z,99060
2023-04-14T10:32:04.607Z,99050
2023-04-14T10:33:00.714Z,99060
2023-04-14T10:34:06.087Z,99050
2023-04-14T10:35:08.220Z,99050
2023-04-14T10:36:01.137Z,99050
2023-04-14T10:37:11.090Z,99050
2023-04-14T10:38:00.464Z,99050
2023-04-14T10:39:02.610Z,99050
2023-04-14T10:40:02.349Z,99060
2023-04-14T10:41:00.444Z,99060
2023-04-14T10:42:00.415Z,99050
2023-04-14T10:43:00.924Z,99050
2023-04-14T10:44:00.434Z,99050
2023-04-14T10:45:03.236Z,99050
2023-04-14T10:46:00.525Z,99050
2023-04-14T10:47:02.680Z,99050
2023-04-14T10:48:01.655Z,99050
2023-04-14T10:49:00.832Z,99040
2023-04-14T10:50:11.304Z,99040
2023-04-14T10:51:02.618Z,99040
2023-04-14T10:52:02.271Z,99040
2023-04-14T10:53:05.477Z,99040
2023-04-14T10:54:02.250Z,99040
2023-04-14T10:55:05.635Z,99030
2023-04-14T10:56:02.534Z,99030
2023-04-14T10:57:08.030Z,99030
2023-04-14T10:58:04.912Z,99030
2023-04-14T10:59:01.625Z,99030
2023-04-14T11:00:00.458Z,99030
2023-04-14T11:01:20.374Z,99030
2023-04-14T11:02:00.544Z,99030
2023-04-14T11:03:04.462Z,99030
2023-04-14T11:04:16.050Z,99030
2023-04-14T11:05:09.321Z,99030
2023-04-14T11:06:00.512Z,99030
2023-04-14T11:07:07.636Z,99030
2023-04-14T11:08:02.781Z,99030
2023-04-14T11:09:00.751Z,99020
2023-04-14T11:10:20.348Z,99030
2023-04-14T11:11:04.022Z,99020
2023-04-14T11:12:03.385Z,99020
2023-04-14T11:13:04.204Z,99020
2023-04-14T11:14:10.382Z,99010
2023-04-14T11:15:02.150Z,99010
2023-04-14T11:16:03.179Z,99010
2023-04-14T11:17:04.709Z,99000
2023-04-14T11:18:10.384Z,99000
2023-04-14T11:19:00.592Z,99000
2023-04-14T11:20:18.410Z,99000
2023-04-14T11:21:10.688Z,99000
2023-04-14T11:22:00.612Z,99000
2023-04-14T11:23:00.616Z,99000
2023-04-14T11:24:00.436Z,99010
2023-04-14T11:25:00.638Z,99010
2023-04-14T11:26:00.605Z,99010
2023-04-14T11:27:00.422Z,99010
2023-04-14T11:28:01.476Z,99010
2023-04-14T11:29:06.306Z,99010
2023-04-14T11:30:00.512Z,99010
2023-04-14T11:31:02.541Z,99000
2023-04-14T11:32:02.348Z,99000
2023-04-14T11:33:00.508Z,99000
2023-04-14T11:34:03.256Z,99000
2023-04-14T11:35:06.479Z,99000
2023-04-14T11:36:01.539Z,99000
2023-04-14T11:37:01.559Z,98990
2023-04-14T11:38:00.536Z,98990
2023-04-14T11:39:01.422Z,98990
2023-04-14T11:40:01.551Z,99000
2023-04-14T11:41:00.886Z,98990
2023-04-14T11:42:00.525Z,98990
2023-04-14T11:43:00.510Z,98990
2023-04-14T11:44:00.488Z,98990
2023-04-14T11:45:01.778Z,98980
2023-04-14T11:46:04.560Z,98980
2023-04-14T11:47:00.520Z,98980
2023-04-14T11:48:03.890Z,98980
2023-04-14T11:49:00.760Z,98980
2023-04-14T11:50:01.980Z,98980
2023-04-14T11:51:00.445Z,98980
2023-04-14T11:52:07.712Z,98980
2023-04-14T11:53:01.045Z,98980
2023-04-14T11:54:00.488Z,98970
2023-04-14T11:55:00.880Z,98970
2023-04-14T11:56:00.679Z,98970
2023-04-14T11:57:00.484Z,98970
2023-04-14T11:58:00.774Z,98970
2023-04-14T11:59:01.451Z,98970
2023-04-14T12:00:00.461Z,98970
2023-04-14T12:01:00.524Z,98970
2023-04-14T12:02:00.948Z,98970
2023-04-14T12:03:01.889Z,98960
2023-04-14T12:04:02.477Z,98960
2023-04-14T12:05:00.782Z,98960
2023-04-14T12:06:01.570Z,98950
2023-04-14T12:07:01.046Z,98950
2023-04-14T12:08:02.015Z,98950
2023-04-14T12:09:00.628Z,98950
2023-04-14T12:10:03.364Z,98950
2023-04-14T12:11:11.270Z,98950
2023-04-14T12:12:06.924Z,98950
2023-04-14T12:13:04.321Z,98940
2023-04-14T12:14:01.086Z,98940
2023-04-14T12:15:01.251Z,98940
2023-04-14T12:16:00.729Z,98940
2023-04-14T12:17:00.759Z,98930
2023-04-14T12:18:00.610Z,98930
2023-04-14T12:19:00.842Z,98930
2023-04-14T12:20:00.455Z,98930
2023-04-14T12:21:02.954Z,98930
2023-04-14T12:22:01.764Z,98930
2023-04-14T12:23:03.347Z,98920
2023-04-14T12:24:00.442Z,98930
2023-04-14T12:25:09.224Z,98920
2023-04-14T12:26:01.230Z,98920
2023-04-14T12:27:00.493Z,98920
2023-04-14T12:28:00.398Z,98920
2023-04-14T12:29:00.897Z,98920
2023-04-14T12:30:00.464Z,98920
2023-04-14T12:31:02.677Z,98910
2023-04-14T12:32:01.480Z,98920
2023-04-14T12:33:09.179Z,98910
2023-04-14T12:34:01.492Z,98910
2023-04-14T12:35:00.416Z,98910
2023-04-14T12:36:03.360Z,98910
2023-04-14T12:37:10.754Z,98910
2023-04-14T12:38:00.418Z,98910
2023-04-14T12:39:05.484Z,98900
2023-04-14T12:40:01.215Z,98900
2023-04-14T12:41:00.605Z,98900
2023-04-14T12:42:00.518Z,98910
2023-04-14T12:43:00.456Z,98900
2023-04-14T12:44:13.317Z,98910
2023-04-14T12:45:01.101Z,98910
2023-04-14T12:46:01.989Z,98900
2023-04-14T12:47:00.484Z,98910
2023-04-14T12:48:00.546Z,98910
2023-04-14T12:49:00.815Z,98910
2023-04-14T12:50:11.512Z,98900
2023-04-14T12:51:12.596Z,98900
2023-04-14T12:52:00.648Z,98900